createdAt,value
2023-01-20T00:00:03.768Z,82.89
2023-01-20T00:05:25.499Z,82.29
2023-01-20T00:10:47.233Z,81.51
2023-01-20T00:16:10.783Z,82.64
2023-01-20T00:21:32.744Z,82.69
2023-01-20T00:26:54.485Z,82.46
2023-01-20T00:32:16.190Z,82.51
2023-01-20T00:37:38.465Z,81.68
2023-01-20T00:43:00.192Z,82.13
2023-01-20T00:48:22.022Z,82.82
2023-01-20T00:53:43.777Z,82.68
2023-01-20T00:59:05.492Z,81.79
2023-01-20T01:04:27.285Z,82.67
2023-01-20T01:09:49.023Z,82.89
2023-01-20T01:15:11.344Z,83.58
2023-01-20T01:20:33.231Z,83.57
2023-01-20T01:25:54.962Z,83.69
2023-01-20T01:31:18.895Z,83.98
2023-01-20T01:36:40.695Z,83.26
2023-01-20T01:42:02.463Z,83.44
2023-01-20T01:47:24.467Z,84.23
2023-01-20T01:52:50.360Z,84.56
2023-01-20T01:58:15.608Z,85.24
2023-01-20T02:04:09.516Z,85.14
2023-01-20T02:09:31.666Z,85.35
2023-01-20T02:14:56.533Z,84.02
2023-01-20T02:20:57.609Z,84.00
2023-01-20T02:26:31.127Z,83.72
2023-01-20T02:32:21.361Z,84.68
2023-01-20T02:37:52.012Z,85.25
2023-01-20T02:43:28.946Z,86.76
2023-01-20T02:49:15.002Z,87.10
2023-01-20T02:54:40.002Z,87.75
2023-01-20T03:00:07.760Z,88.47
2023-01-20T03:05:33.154Z,88.44
2023-01-20T03:10:59.266Z,88.21
2023-01-20T03:16:23.689Z,88.96
2023-01-20T03:21:45.717Z,88.30
2023-01-20T03:27:07.790Z,87.44
2023-01-20T03:32:29.921Z,87.14
2023-01-20T03:37:52.078Z,87.30
2023-01-20T03:43:38.718Z,84.83
2023-01-20T03:49:35.939Z,83.68
2023-01-20T03:55:07.215Z,84.40
2023-01-20T04:00:32.701Z,84.67
2023-01-20T04:05:58.217Z,84.96
2023-01-20T04:11:20.487Z,83.61
2023-01-20T04:16:43.268Z,82.60
2023-01-20T04:22:12.401Z,82.17
2023-01-20T04:27:34.188Z,82.10
2023-01-20T04:32:55.901Z,82.19
2023-01-20T04:38:17.612Z,82.68
2023-01-20T04:43:43.874Z,83.30
2023-01-20T04:49:05.652Z,81.47
2023-01-20T04:54:27.415Z,80.70
2023-01-20T04:59:49.918Z,80.57
2023-01-20T05:05:11.652Z,79.53
2023-01-20T05:10:33.730Z,80.53
2023-01-20T05:15:55.634Z,81.32
2023-01-20T05:21:17.432Z,81.99
2023-01-20T05:26:39.161Z,81.87
2023-01-20T05:32:00.900Z,78.92
2023-01-20T05:37:22.633Z,79.73
2023-01-20T05:42:44.373Z,79.05
2023-01-20T05:48:06.406Z,80.34
2023-01-20T05:53:28.110Z,79.81
2023-01-20T05:58:54.125Z,79.49
2023-01-20T06:04:15.828Z,79.73
2023-01-20T06:09:37.602Z,80.20
2023-01-20T06:14:59.327Z,80.05
2023-01-20T06:20:21.122Z,80.18
2023-01-20T06:25:43.925Z,78.76
2023-01-20T06:31:11.754Z,79.65
2023-01-20T06:36:33.530Z,80.42
2023-01-20T06:41:59.570Z,81.13
2023-01-20T06:47:21.304Z,79.92
2023-01-20T06:52:43.085Z,80.21
2023-01-20T06:58:04.832Z,80.35
2023-01-20T07:03:26.565Z,78.01
2023-01-20T07:08:48.382Z,79.06
2023-01-20T07:14:10.396Z,78.46
2023-01-20T07:19:32.108Z,78.40
2023-01-20T07:24:53.842Z,79.21
2023-01-20T07:30:15.951Z,76.59
2023-01-20T07:35:37.659Z,77.48
2023-01-20T07:41:18.211Z,78.46
2023-01-20T07:46:39.899Z,78.91
2023-01-20T07:52:01.649Z,77.26
2023-01-20T07:57:23.438Z,77.41
2023-01-20T08:02:45.198Z,77.38
2023-01-20T08:08:06.914Z,76.42
2023-01-20T08:13:29.274Z,75.42
2023-01-20T08:18:54.593Z,74.82
2023-01-20T08:24:16.332Z,76.06
2023-01-20T08:29:38.099Z,76.61
2023-01-20T08:34:59.990Z,75.80
2023-01-20T08:40:21.820Z,76.47
2023-01-20T08:45:43.783Z,76.24
2023-01-20T08:51:14.336Z,76.32
2023-01-20T08:56:36.798Z,75.78
2023-01-20T09:01:58.554Z,76.07
2023-01-20T09:07:20.565Z,76.02
2023-01-20T09:12:42.334Z,75.59
2023-01-20T09:18:04.152Z,75.93
2023-01-20T09:23:26.676Z,76.10
2023-01-20T09:28:48.398Z,75.05
2023-01-20T09:34:11.871Z,75.55
2023-01-20T09:39:53.299Z,75.85
2023-01-20T09:45:24.542Z,74.06
2023-01-20T09:51:15.309Z,74.57
2023-01-20T09:56:43.841Z,74.95
2023-01-20T10:02:17.071Z,74.53
2023-01-20T10:07:50.642Z,74.11
2023-01-20T10:13:56.388Z,75.24
2023-01-20T10:19:27.096Z,73.90
2023-01-20T10:25:13.858Z,74.54
2023-01-20T10:30:37.266Z,72.72
2023-01-20T10:36:00.383Z,74.15
2023-01-20T10:41:26.943Z,73.73
2023-01-20T10:47:14.862Z,74.28
2023-01-20T10:52:56.126Z,74.02
2023-01-20T10:58:31.282Z,74.35
2023-01-20T11:03:53.156Z,74.68
2023-01-20T11:09:27.442Z,73.77
2023-01-20T11:14:49.600Z,71.67
2023-01-20T11:20:19.589Z,70.96
2023-01-20T11:25:41.321Z,69.83
2023-01-20T11:31:04.462Z,69.63
2023-01-20T11:36:27.605Z,67.47
2023-01-20T11:41:49.323Z,68.37
2023-01-20T11:47:26.141Z,68.08
2023-01-20T11:52:47.922Z,67.14
2023-01-20T11:58:25.888Z,66.47
2023-01-20T12:03:53.557Z,66.52
2023-01-20T12:09:18.255Z,65.76
2023-01-20T12:15:02.366Z,65.04
2023-01-20T12:20:42.322Z,64.61
2023-01-20T12:26:13.087Z,64.54
2023-01-20T12:31:34.970Z,63.85
2023-01-20T12:37:16.813Z,62.04
2023-01-20T12:43:02.051Z,62.78
2023-01-20T12:48:48.637Z,61.47
2023-01-20T12:54:42.960Z,62.85
2023-01-20T13:00:23.203Z,62.37
2023-01-20T13:06:12.949Z,62.86
2023-01-20T13:11:54.085Z,64.09
2023-01-20T13:17:30.086Z,65.65
2023-01-20T13:22:54.618Z,63.86
2023-01-20T13:28:19.409Z,63.66
2023-01-20T13:33:42.240Z,64.05
2023-01-20T13:39:40.431Z,62.05
2023-01-20T13:45:14.809Z,61.44
2023-01-20T13:50:41.680Z,62.53
2023-01-20T13:56:03.503Z,62.50
2023-01-20T14:01:26.809Z,62.60
2023-01-20T14:06:51.202Z,62.39
2023-01-20T14:12:13.000Z,62.64
2023-01-20T14:17:34.719Z,62.53
2023-01-20T14:23:23.280Z,62.28
2023-01-20T14:28:48.609Z,61.72
2023-01-20T14:34:25.706Z,61.25
2023-01-20T14:39:49.981Z,63.06
2023-01-20T14:45:23.536Z,60.67
2023-01-20T14:50:52.387Z,58.84
2023-01-20T14:56:19.430Z,57.04
2023-01-20T15:01:41.239Z,59.98
2023-01-20T15:07:03.147Z,58.93
2023-01-20T15:12:47.053Z,56.84
2023-01-20T15:18:11.810Z,59.38
2023-01-20T15:23:39.272Z,59.47
2023-01-20T15:29:01.091Z,57.94
2023-01-20T15:34:23.541Z,59.07
2023-01-20T15:39:45.901Z,59.55
2023-01-20T15:45:08.586Z,59.60
2023-01-20T15:50:31.534Z,59.91
2023-01-20T15:55:53.430Z,61.25
2023-01-20T16:01:17.926Z,59.78
2023-01-20T16:06:39.828Z,59.80
2023-01-20T16:12:01.718Z,60.33
2023-01-20T16:17:25.276Z,60.78
2023-01-20T16:22:47.067Z,61.33
2023-01-20T16:28:18.567Z,61.17
2023-01-20T16:33:40.413Z,61.85
2023-01-20T16:39:02.115Z,60.92
2023-01-20T16:44:23.833Z,61.54
2023-01-20T16:49:45.690Z,62.73
2023-01-20T16:55:07.780Z,62.92
2023-01-20T17:00:29.475Z,63.12
2023-01-20T17:05:51.207Z,63.26
2023-01-20T17:11:20.401Z,64.54
2023-01-20T17:16:42.239Z,64.21
2023-01-20T17:22:03.997Z,64.75
2023-01-20T17:27:25.738Z,64.52
2023-01-20T17:32:48.438Z,64.99
2023-01-20T17:38:10.304Z,65.77
2023-01-20T17:43:33.538Z,65.06
2023-01-20T17:48:59.891Z,66.04
2023-01-20T17:54:21.587Z,65.79
2023-01-20T17:59:43.381Z,66.26
2023-01-20T18:05:05.504Z,67.29
2023-01-20T18:10:27.748Z,68.06
2023-01-20T18:15:49.655Z,67.88
2023-01-20T18:21:19.459Z,67.42
2023-01-20T18:26:44.932Z,66.41
2023-01-20T18:32:06.759Z,66.19
2023-01-20T18:37:28.655Z,66.21
2023-01-20T18:42:50.405Z,66.36
2023-01-20T18:48:12.115Z,67.55
2023-01-20T18:53:34.008Z,67.23
2023-01-20T18:58:56.125Z,66.55
2023-01-20T19:04:18.094Z,65.55
2023-01-20T19:09:39.902Z,64.93
2023-01-20T19:15:01.670Z,66.12
2023-01-20T19:20:23.496Z,66.34
2023-01-20T19:25:45.249Z,66.27
2023-01-20T19:31:08.790Z,66.58
2023-01-20T19:36:31.390Z,67.99
2023-01-20T19:41:53.604Z,67.75
2023-01-20T19:47:15.391Z,68.45
2023-01-20T19:52:37.143Z,68.24
2023-01-20T19:58:00.927Z,67.57
2023-01-20T20:03:22.695Z,67.81
2023-01-20T20:08:44.540Z,68.08
2023-01-20T20:14:08.129Z,68.20
2023-01-20T20:19:30.013Z,68.39
2023-01-20T20:24:52.852Z,67.99
2023-01-20T20:30:15.045Z,68.62
2023-01-20T20:35:37.686Z,68.02
2023-01-20T20:40:59.739Z,68.46
2023-01-20T20:46:21.748Z,68.13
2023-01-20T20:51:43.856Z,68.25
2023-01-20T20:57:07.500Z,67.88
2023-01-20T21:02:29.301Z,67.70
2023-01-20T21:07:51.263Z,67.93
2023-01-20T21:13:13.036Z,67.47
2023-01-20T21:18:36.172Z,67.49
2023-01-20T21:23:59.656Z,66.96
2023-01-20T21:29:21.426Z,66.11
2023-01-20T21:34:43.195Z,66.43
2023-01-20T21:40:05.854Z,65.97
2023-01-20T21:45:27.554Z,65.35
2023-01-20T21:51:07.950Z,65.75
2023-01-20T21:56:29.679Z,65.91
2023-01-20T22:01:51.709Z,65.61
2023-01-20T22:07:15.533Z,66.01
2023-01-20T22:12:37.383Z,65.63
2023-01-20T22:17:59.319Z,64.97
2023-01-20T22:23:21.056Z,64.96
2023-01-20T22:28:43.173Z,64.75
2023-01-20T22:34:06.295Z,63.66
2023-01-20T22:39:28.327Z,64.12
2023-01-20T22:44:50.108Z,64.11
2023-01-20T22:50:11.981Z,63.20
2023-01-20T22:55:33.702Z,63.13
2023-01-20T23:00:55.479Z,64.02
2023-01-20T23:06:17.997Z,63.65
2023-01-20T23:11:40.518Z,63.67
2023-01-20T23:17:02.220Z,64.30
2023-01-20T23:22:24.207Z,64.76
2023-01-20T23:27:45.971Z,64.16
2023-01-20T23:33:08.575Z,64.60
2023-01-20T23:38:30.856Z,64.09
2023-01-20T23:43:52.750Z,65.17
2023-01-20T23:49:14.569Z,65.15
2023-01-20T23:54:36.293Z,66.26
2023-01-20T23:59:58.040Z,67.21
